Time;durP1;ratioP1;P1;durP2;ratioP2;P2;SDS_P1;SDS_P2;PMS_P1;PMS_P2;Temp;Humidity;BMP_temperature;BMP_pressure;BME280_temperature;BME280_humidity;BME280_pressure;Samples;Min_cycle;Max_cycle;Signal;HPM_P1;HPM_P2
2024/04/01 00:01:49;;;;;;;16.23;4.22;;;;;;;;;;5000542;28;20056;-80
2024/04/01 00:04:16;;;;;;;19.65;4.35;;;;;;;;;;5000649;28;20065;-80
2024/04/01 00:06:42;;;;;;;19.05;4.63;;;;;;;;;;5017079;28;20065;-82
2024/04/01 00:09:08;;;;;;;17.25;3.50;;;;;;;;;;4999486;28;20103;-80
2024/04/01 00:11:34;;;;;;;11.45;4.20;;;;;;;;;;5016767;28;20397;-80
2024/04/01 00:14:00;;;;;;;17.27;3.88;;;;;;;;;;5018647;28;20042;-80
2024/04/01 00:16:27;;;;;;;19.00;4.32;;;;;;;;;;5024776;28;20057;-80
2024/04/01 00:18:53;;;;;;;13.98;3.90;;;;;;;;;;5024083;28;20060;-80
2024/04/01 00:21:19;;;;;;;16.02;3.90;;;;;;;;;;5014963;28;20538;-80
2024/04/01 00:23:49;;;;;;;19.02;4.47;;;;;;;;;;5015651;28;20080;-80
2024/04/01 00:26:16;;;;;;;17.23;3.95;;;;;;;;;;5023554;28;20060;-80
2024/04/01 00:28:42;;;;;;;15.98;3.67;;;;;;;;;;5023798;28;20061;-80
2024/04/01 00:31:08;;;;;;;21.60;3.88;;;;;;;;;;5005660;28;20061;-80
2024/04/01 00:33:35;;;;;;;14.07;4.07;;;;;;;;;;5022884;28;20050;-80
2024/04/01 00:36:01;;;;;;;18.65;4.10;;;;;;;;;;5021386;28;20050;-80
2024/04/01 00:38:27;;;;;;;24.20;4.05;;;;;;;;;;5031920;28;20526;-82
2024/04/01 00:40:53;;;;;;;19.92;4.40;;;;;;;;;;5022010;28;20416;-82
2024/04/01 00:43:20;;;;;;;20.92;4.00;;;;;;;;;;5005049;28;20057;-82
2024/04/01 00:45:47;;;;;;;17.45;4.07;;;;;;;;;;5003685;28;20054;-82
2024/04/01 00:48:14;;;;;;;27.50;4.95;;;;;;;;;;5020568;28;20065;-82
2024/04/01 00:50:44;;;;;;;23.77;4.80;;;;;;;;;;5020119;28;20050;-82
2024/04/01 00:53:11;;;;;;;13.65;4.03;;;;;;;;;;5003678;28;20054;-82
2024/04/01 00:55:42;;;;;;;16.90;3.88;;;;;;;;;;5019674;28;20057;-82
2024/04/01 00:58:09;;;;;;;15.23;3.97;;;;;;;;;;5009878;28;20080;-82
2024/04/01 01:00:36;;;;;;;20.73;4.28;;;;;;;;;;5004373;28;20471;-82
2024/04/01 01:03:03;;;;;;;16.88;4.35;;;;;;;;;;5019884;28;20058;-82
2024/04/01 01:05:29;;;;;;;12.93;3.47;;;;;;;;;;5026670;28;20053;-82
2024/04/01 01:07:56;;;;;;;19.95;4.10;;;;;;;;;;5018929;28;20057;-82
2024/04/01 01:10:24;;;;;;;23.02;3.90;;;;;;;;;;5002323;28;20533;-82
2024/04/01 01:12:50;;;;;;;13.77;3.55;;;;;;;;;;5007750;28;20049;-82
2024/04/01 01:15:16;;;;;;;13.65;3.90;;;;;;;;;;5016832;28;20076;-81
2024/04/01 01:17:45;;;;;;;25.25;4.20;;;;;;;;;;5017074;28;20061;-80
2024/04/01 01:20:12;;;;;;;23.25;5.75;;;;;;;;;;5032517;28;20056;-82
2024/04/01 01:22:41;;;;;;;15.00;4.20;;;;;;;;;;5005878;28;20046;-82
2024/04/01 01:25:08;;;;;;;18.67;4.38;;;;;;;;;;5012369;28;20539;-82
2024/04/01 01:27:35;;;;;;;20.40;3.78;;;;;;;;;;5022124;28;20046;-82
2024/04/01 01:30:03;;;;;;;21.40;3.90;;;;;;;;;;5005267;28;20049;-82
2024/04/01 01:32:29;;;;;;;17.85;4.32;;;;;;;;;;5020591;28;20053;-82
2024/04/01 01:34:55;;;;;;;12.75;3.70;;;;;;;;;;5025166;28;20454;-82
2024/04/01 01:37:23;;;;;;;21.77;4.32;;;;;;;;;;5020779;28;20057;-82
2024/04/01 01:39:49;;;;;;;24.73;5.13;;;;;;;;;;5012584;28;20500;-82
2024/04/01 01:42:15;;;;;;;13.85;3.83;;;;;;;;;;5012518;28;20050;-82
2024/04/01 01:44:41;;;;;;;17.58;5.00;;;;;;;;;;5015819;28;20057;-82
2024/04/01 01:47:08;;;;;;;22.40;4.32;;;;;;;;;;5018849;28;20061;-83
2024/04/01 01:49:34;;;;;;;12.38;3.63;;;;;;;;;;5012681;28;20509;-82
2024/04/01 01:52:00;;;;;;;18.65;4.25;;;;;;;;;;4997073;28;20058;-82
2024/04/01 01:54:26;;;;;;;16.88;3.80;;;;;;;;;;5013160;28;20061;-82
2024/04/01 01:56:53;;;;;;;17.52;3.80;;;;;;;;;;4997167;28;20046;-79
2024/04/01 01:59:19;;;;;;;14.32;3.63;;;;;;;;;;5014207;28;20057;-82
2024/04/01 02:01:45;;;;;;;17.65;4.15;;;;;;;;;;5017483;28;20397;-82
2024/04/01 02:04:11;;;;;;;19.27;4.15;;;;;;;;;;5018980;28;20070;-82
2024/04/01 02:06:37;;;;;;;12.93;4.15;;;;;;;;;;5005736;28;20057;-82
2024/04/01 02:09:04;;;;;;;19.60;4.03;;;;;;;;;;4997893;28;20053;-82
2024/04/01 02:11:30;;;;;;;12.95;3.45;;;;;;;;;;4997549;28;20061;-82
2024/04/01 02:13:56;;;;;;;11.02;3.35;;;;;;;;;;5022487;28;20056;-82
2024/04/01 02:16:23;;;;;;;20.98;4.43;;;;;;;;;;5022470;28;20061;-82
2024/04/01 02:18:49;;;;;;;21.98;4.30;;;;;;;;;;5015604;28;20042;-82
2024/04/01 02:21:18;;;;;;;15.55;3.55;;;;;;;;;;4998895;28;20049;-82
2024/04/01 02:23:45;;;;;;;18.48;4.28;;;;;;;;;;4997305;28;20516;-82
2024/04/01 02:26:11;;;;;;;16.60;3.67;;;;;;;;;;5014415;28;20065;-82
2024/04/01 02:28:37;;;;;;;16.98;3.70;;;;;;;;;;5016086;28;20108;-82
2024/04/01 02:31:04;;;;;;;20.75;3.67;;;;;;;;;;5014806;28;20394;-82
2024/04/01 02:33:30;;;;;;;15.15;3.58;;;;;;;;;;5005574;28;20057;-82
2024/04/01 02:35:56;;;;;;;10.02;3.30;;;;;;;;;;5019082;28;20056;-82
2024/04/01 02:38:22;;;;;;;17.55;3.33;;;;;;;;;;5003677;28;20515;-80
2024/04/01 02:40:48;;;;;;;13.80;3.42;;;;;;;;;;5022646;28;20042;-82
2024/04/01 02:43:15;;;;;;;25.73;4.03;;;;;;;;;;5007107;28;20058;-82
2024/04/01 02:45:41;;;;;;;17.30;4.03;;;;;;;;;;4998982;28;20471;-82
2024/04/01 02:48:07;;;;;;;18.33;4.00;;;;;;;;;;5008423;28;20062;-83
2024/04/01 02:50:34;;;;;;;14.70;3.25;;;;;;;;;;5008391;28;20058;-83
2024/04/01 02:53:00;;;;;;;15.18;4.65;;;;;;;;;;5029794;28;20050;-83
2024/04/01 02:55:26;;;;;;;14.00;3.25;;;;;;;;;;5022179;28;20054;-82
2024/04/01 02:57:53;;;;;;;18.25;3.80;;;;;;;;;;5005701;28;20051;-83
2024/04/01 03:00:19;;;;;;;22.58;3.85;;;;;;;;;;5012731;28;20052;-82
2024/04/01 03:02:46;;;;;;;14.75;3.13;;;;;;;;;;5003923;28;20046;-82
2024/04/01 03:05:13;;;;;;;17.13;4.28;;;;;;;;;;5028716;28;20050;-82
2024/04/01 03:07:40;;;;;;;16.77;4.05;;;;;;;;;;5014228;28;20061;-82
2024/04/01 03:10:13;;;;;;;14.55;3.63;;;;;;;;;;5024412;28;20054;-82
2024/04/01 03:12:40;;;;;;;20.55;4.45;;;;;;;;;;5013471;28;20085;-82
2024/04/01 03:15:07;;;;;;;15.52;3.63;;;;;;;;;;5001971;28;20050;-82
2024/04/01 03:17:33;;;;;;;22.35;3.63;;;;;;;;;;5011507;28;20424;-82
2024/04/01 03:19:59;;;;;;;18.95;3.38;;;;;;;;;;4995772;28;20416;-82
2024/04/01 03:22:26;;;;;;;16.73;3.38;;;;;;;;;;4995986;28;20054;-82
2024/04/01 03:24:53;;;;;;;17.20;3.53;;;;;;;;;;5011380;28;20104;-82
2024/04/01 03:27:20;;;;;;;15.95;3.08;;;;;;;;;;5012350;28;20054;-82
2024/04/01 03:29:46;;;;;;;14.00;3.88;;;;;;;;;;5012751;28;20089;-82
2024/04/01 03:32:12;;;;;;;19.35;3.88;;;;;;;;;;5002691;28;20563;-82
2024/04/01 03:34:39;;;;;;;16.02;3.30;;;;;;;;;;4997310;28;20046;-81
2024/04/01 03:37:06;;;;;;;12.15;3.13;;;;;;;;;;5013149;28;20512;-82
2024/04/01 03:39:32;;;;;;;22.40;3.72;;;;;;;;;;5005246;28;20064;-82
2024/04/01 03:41:58;;;;;;;12.88;3.58;;;;;;;;;;5012981;28;20523;-82
2024/04/01 03:44:25;;;;;;;12.80;3.40;;;;;;;;;;4997687;28;20460;-82
2024/04/01 03:46:51;;;;;;;17.67;3.55;;;;;;;;;;5009401;28;20056;-82
2024/04/01 03:49:18;;;;;;;26.35;3.83;;;;;;;;;;5018888;28;20057;-82
2024/04/01 03:51:44;;;;;;;12.75;3.85;;;;;;;;;;5038103;28;20080;-82
2024/04/01 03:54:11;;;;;;;18.98;3.33;;;;;;;;;;5006790;28;20058;-83
2024/04/01 03:56:37;;;;;;;19.17;3.78;;;;;;;;;;5017413;28;20042;-82
2024/04/01 03:59:03;;;;;;;20.77;3.83;;;;;;;;;;5017918;28;20046;-82
2024/04/01 04:01:31;;;;;;;16.02;3.97;;;;;;;;;;5018477;28;20050;-83
2024/04/01 04:03:57;;;;;;;16.02;3.88;;;;;;;;;;5000635;28;20286;-83
2024/04/01 04:06:23;;;;;;;21.52;4.10;;;;;;;;;;5001037;28;20057;-82
2024/04/01 04:08:50;;;;;;;18.35;4.05;;;;;;;;;;5010154;28;20056;-82
2024/04/01 04:11:16;;;;;;;18.13;3.38;;;;;;;;;;5000127;28;20054;-83
2024/04/01 04:13:42;;;;;;;21.33;4.22;;;;;;;;;;5009537;28;20062;-82
2024/04/01 04:16:08;;;;;;;24.45;5.45;;;;;;;;;;5019002;28;20045;-82
2024/04/01 04:18:35;;;;;;;22.70;3.90;;;;;;;;;;5019508;28;20050;-82
2024/04/01 04:21:01;;;;;;;27.23;3.90;;;;;;;;;;5005512;28;20072;-83
2024/04/01 04:23:28;;;;;;;18.70;3.25;;;;;;;;;;5011710;28;20061;-82
2024/04/01 04:25:54;;;;;;;23.35;3.78;;;;;;;;;;5028025;28;20054;-83
2024/04/01 04:28:20;;;;;;;28.33;4.13;;;;;;;;;;5010771;28;20072;-82
2024/04/01 04:30:47;;;;;;;24.15;4.93;;;;;;;;;;5009535;28;20058;-82
2024/04/01 04:33:13;;;;;;;22.70;5.22;;;;;;;;;;5028566;28;20056;-82
2024/04/01 04:35:39;;;;;;;25.77;3.85;;;;;;;;;;5035281;28;20076;-82
2024/04/01 04:38:05;;;;;;;15.07;3.05;;;;;;;;;;5036137;28;20057;-82
2024/04/01 04:40:32;;;;;;;21.67;4.25;;;;;;;;;;5034045;28;20046;-83
2024/04/01 04:42:58;;;;;;;16.95;3.28;;;;;;;;;;5033975;28;20147;-83
2024/04/01 04:45:25;;;;;;;14.90;3.88;;;;;;;;;;5011171;28;20050;-83
2024/04/01 04:47:51;;;;;;;24.20;3.85;;;;;;;;;;5027280;28;20064;-83
2024/04/01 04:50:18;;;;;;;18.63;4.13;;;;;;;;;;5004078;28;20061;-82
2024/04/01 04:52:44;;;;;;;17.42;3.75;;;;;;;;;;5021948;28;20050;-82
2024/04/01 04:55:10;;;;;;;15.70;3.33;;;;;;;;;;5025357;28;20049;-82
2024/04/01 04:57:37;;;;;;;23.10;4.43;;;;;;;;;;5007994;28;20049;-83
2024/04/01 05:00:22;;;;;;;21.27;4.05;;;;;;;;;;5007933;28;20053;-82
2024/04/01 05:02:49;;;;;;;18.98;4.40;;;;;;;;;;5007780;28;20050;-82
2024/04/01 05:05:17;;;;;;;16.98;3.63;;;;;;;;;;5025855;28;20046;-83
2024/04/01 05:07:44;;;;;;;13.10;3.70;;;;;;;;;;5016219;28;20053;-82
2024/04/01 05:10:11;;;;;;;16.65;3.78;;;;;;;;;;5012890;28;20061;-83
2024/04/01 05:12:38;;;;;;;16.95;3.70;;;;;;;;;;5007572;28;20050;-83
2024/04/01 05:15:08;;;;;;;14.80;3.78;;;;;;;;;;5013896;28;20081;-82
2024/04/01 05:17:34;;;;;;;20.30;3.75;;;;;;;;;;5006547;28;20080;-83
2024/04/01 05:20:00;;;;;;;19.17;4.35;;;;;;;;;;5023030;28;20062;-82
2024/04/01 05:22:27;;;;;;;21.67;3.70;;;;;;;;;;5022203;28;20427;-82
2024/04/01 05:24:54;;;;;;;14.07;3.33;;;;;;;;;;5005964;28;20054;-83
2024/04/01 05:27:21;;;;;;;21.88;3.92;;;;;;;;;;5006204;28;20054;-83
2024/04/01 05:30:04;;;;;;;20.17;3.78;;;;;;;;;;5022183;28;20062;-83
2024/04/01 05:32:34;;;;;;;17.15;3.50;;;;;;;;;;5020595;28;20057;-83
2024/04/01 05:35:01;;;;;;;19.55;3.47;;;;;;;;;;5021066;28;20061;-83
2024/04/01 05:37:28;;;;;;;14.93;3.50;;;;;;;;;;5021447;28;20058;-83
2024/04/01 05:39:54;;;;;;;24.92;3.78;;;;;;;;;;5020886;28;20050;-83
2024/04/01 05:42:21;;;;;;;15.70;3.63;;;;;;;;;;5005596;28;20558;-83
2024/04/01 05:44:47;;;;;;;14.30;3.72;;;;;;;;;;5007291;28;20054;-83
2024/04/01 05:47:14;;;;;;;21.00;3.72;;;;;;;;;;5007977;28;20071;-83
2024/04/01 05:49:40;;;;;;;16.98;3.55;;;;;;;;;;5024850;28;20136;-82
2024/04/01 05:52:06;;;;;;;18.33;3.88;;;;;;;;;;5024965;28;20053;-82
2024/04/01 05:54:33;;;;;;;16.02;3.40;;;;;;;;;;5005850;28;20050;-80
2024/04/01 05:57:00;;;;;;;15.30;3.90;;;;;;;;;;5034000;28;20076;-80
2024/04/01 05:59:27;;;;;;;22.98;3.75;;;;;;;;;;5009269;28;20058;-81
2024/04/01 06:01:53;;;;;;;17.25;3.85;;;;;;;;;;5024540;28;20050;-80
2024/04/01 06:04:20;;;;;;;19.25;3.78;;;;;;;;;;5007125;28;20057;-80
2024/04/01 06:06:46;;;;;;;14.63;3.10;;;;;;;;;;5007338;28;20558;-80
2024/04/01 06:09:13;;;;;;;16.65;3.90;;;;;;;;;;5022366;28;20050;-80
2024/04/01 06:11:40;;;;;;;16.13;3.53;;;;;;;;;;5022360;28;20064;-80
2024/04/01 06:14:06;;;;;;;15.65;3.80;;;;;;;;;;5021635;28;20069;-80
2024/04/01 06:16:33;;;;;;;24.20;7.70;;;;;;;;;;5020163;28;20080;-80
2024/04/01 06:18:59;;;;;;;18.98;6.40;;;;;;;;;;5020302;28;20513;-80
2024/04/01 06:21:25;;;;;;;27.83;7.85;;;;;;;;;;5020195;28;20042;-80
2024/04/01 06:23:51;;;;;;;51.90;22.35;;;;;;;;;;5002935;28;20060;-80
2024/04/01 06:26:18;;;;;;;124.55;49.58;;;;;;;;;;5016445;28;20508;-80
2024/04/01 06:28:44;;;;;;;27.02;8.27;;;;;;;;;;5003755;28;20084;-80
2024/04/01 06:31:11;;;;;;;30.50;5.10;;;;;;;;;;5012313;28;20428;-82
2024/04/01 06:33:37;;;;;;;20.20;4.70;;;;;;;;;;5012517;28;20167;-82
2024/04/01 06:36:04;;;;;;;22.45;4.05;;;;;;;;;;4996377;28;20448;-82
2024/04/01 06:38:31;;;;;;;22.95;4.78;;;;;;;;;;4997206;28;20054;-82
2024/04/01 06:40:57;;;;;;;22.63;5.25;;;;;;;;;;5012587;28;20057;-82
2024/04/01 06:43:23;;;;;;;22.25;4.65;;;;;;;;;;5005555;28;20053;-78
2024/04/01 06:45:53;;;;;;;24.05;5.05;;;;;;;;;;4997307;28;20058;-79
2024/04/01 06:48:19;;;;;;;23.13;6.80;;;;;;;;;;5014853;28;20467;-79
2024/04/01 06:50:45;;;;;;;25.48;9.45;;;;;;;;;;5013561;28;20141;-80
2024/04/01 06:53:12;;;;;;;34.58;8.95;;;;;;;;;;5013860;28;20050;-80
2024/04/01 06:55:38;;;;;;;21.65;5.07;;;;;;;;;;5013780;28;20512;-80
2024/04/01 06:58:06;;;;;;;17.48;4.65;;;;;;;;;;5013984;28;20525;-80
2024/04/01 07:00:33;;;;;;;25.23;5.30;;;;;;;;;;5021965;28;20416;-80
2024/04/01 07:02:59;;;;;;;15.13;4.55;;;;;;;;;;5013595;28;20050;-80
2024/04/01 07:05:25;;;;;;;15.80;3.83;;;;;;;;;;5013556;28;20053;-80
2024/04/01 07:07:51;;;;;;;19.92;3.85;;;;;;;;;;4997239;28;20047;-80
2024/04/01 07:10:18;;;;;;;23.85;4.30;;;;;;;;;;5014264;28;20054;-80
2024/04/01 07:12:44;;;;;;;15.70;3.80;;;;;;;;;;5014254;28;20054;-79
2024/04/01 07:15:10;;;;;;;25.10;4.15;;;;;;;;;;4998268;28;20401;-80
2024/04/01 07:17:38;;;;;;;22.08;4.90;;;;;;;;;;4997931;28;20084;-80
2024/04/01 07:20:05;;;;;;;21.13;5.63;;;;;;;;;;5015550;28;20068;-81
2024/04/01 07:22:32;;;;;;;21.77;4.82;;;;;;;;;;5000997;28;20056;-80
2024/04/01 07:24:58;;;;;;;18.67;5.78;;;;;;;;;;5018722;28;20054;-80
2024/04/01 07:27:24;;;;;;;21.00;4.95;;;;;;;;;;5002005;28;20058;-80
2024/04/01 07:29:50;;;;;;;23.90;5.57;;;;;;;;;;5004550;28;20053;-81
2024/04/01 07:32:16;;;;;;;22.75;5.03;;;;;;;;;;5020387;28;20050;-81
2024/04/01 07:34:43;;;;;;;24.70;5.03;;;;;;;;;;5028595;28;20053;-81
2024/04/01 07:37:09;;;;;;;23.00;5.00;;;;;;;;;;5010556;28;20401;-80
2024/04/01 07:39:35;;;;;;;22.15;4.63;;;;;;;;;;5010113;28;20056;-81
2024/04/01 07:42:01;;;;;;;23.35;5.57;;;;;;;;;;5010609;28;20049;-80
2024/04/01 07:44:28;;;;;;;20.08;5.15;;;;;;;;;;5009040;28;20068;-80
2024/04/01 07:46:54;;;;;;;18.13;4.28;;;;;;;;;;5024611;28;20053;-81
2024/04/01 07:49:20;;;;;;;23.20;4.43;;;;;;;;;;5009143;28;20083;-80
2024/04/01 07:51:46;;;;;;;20.73;4.10;;;;;;;;;;5005861;28;20523;-80
2024/04/01 07:54:13;;;;;;;20.27;4.55;;;;;;;;;;5014399;28;20057;-81
2024/04/01 07:56:39;;;;;;;28.25;4.15;;;;;;;;;;5032395;28;20431;-81
2024/04/01 07:59:05;;;;;;;17.17;3.83;;;;;;;;;;5016975;28;20100;-80
2024/04/01 08:01:32;;;;;;;21.23;3.92;;;;;;;;;;5025324;28;20132;-81
2024/04/01 08:03:58;;;;;;;18.30;3.58;;;;;;;;;;5008834;28;20070;-80
2024/04/01 08:06:24;;;;;;;19.02;3.92;;;;;;;;;;5029517;28;20089;-81
2024/04/01 08:08:50;;;;;;;24.52;4.07;;;;;;;;;;5005442;28;20065;-80
2024/04/01 08:11:17;;;;;;;16.60;4.40;;;;;;;;;;5005077;28;20054;-80
2024/04/01 08:13:43;;;;;;;18.77;4.30;;;;;;;;;;5021589;28;20500;-80
2024/04/01 08:16:09;;;;;;;16.38;4.32;;;;;;;;;;5007643;28;20493;-81
2024/04/01 08:18:36;;;;;;;20.95;4.07;;;;;;;;;;5020205;28;20050;-81
2024/04/01 08:21:03;;;;;;;16.48;4.13;;;;;;;;;;5018826;28;20566;-80
2024/04/01 08:23:31;;;;;;;20.50;4.38;;;;;;;;;;5017851;28;20058;-80
2024/04/01 08:25:57;;;;;;;19.08;4.57;;;;;;;;;;5019562;28;20054;-81
2024/04/01 08:28:23;;;;;;;21.58;4.47;;;;;;;;;;5018781;28;20054;-80
2024/04/01 08:30:49;;;;;;;25.42;4.93;;;;;;;;;;5006247;28;20131;-81
2024/04/01 08:33:16;;;;;;;22.30;4.78;;;;;;;;;;5007840;28;20058;-81
2024/04/01 08:35:42;;;;;;;22.70;4.00;;;;;;;;;;5002927;28;20104;-80
2024/04/01 08:38:09;;;;;;;23.10;4.15;;;;;;;;;;5001421;28;20497;-81
2024/04/01 08:40:43;;;;;;;18.20;3.88;;;;;;;;;;5001622;28;20053;-81
2024/04/01 08:43:13;;;;;;;13.55;3.63;;;;;;;;;;5001182;28;20069;-81
2024/04/01 08:45:42;;;;;;;17.38;4.03;;;;;;;;;;5010927;28;20104;-81
2024/04/01 08:48:10;;;;;;;23.10;4.40;;;;;;;;;;5003322;28;20058;-80
2024/04/01 08:50:38;;;;;;;26.30;5.20;;;;;;;;;;5005185;28;20073;-81
2024/04/01 08:53:12;;;;;;;24.17;4.32;;;;;;;;;;5024722;28;20057;-81
2024/04/01 08:55:39;;;;;;;21.50;4.38;;;;;;;;;;5012023;28;20108;-81
2024/04/01 08:58:05;;;;;;;19.63;4.95;;;;;;;;;;5010515;28;20054;-82
2024/04/01 09:00:31;;;;;;;25.55;4.93;;;;;;;;;;5007424;28;20046;-81
2024/04/01 09:02:59;;;;;;;18.83;4.68;;;;;;;;;;5010979;28;20057;-81
2024/04/01 09:05:25;;;;;;;19.55;4.32;;;;;;;;;;5023510;28;20420;-81
2024/04/01 09:07:51;;;;;;;21.60;4.50;;;;;;;;;;5019432;28;20060;-81
2024/04/01 09:10:21;;;;;;;19.90;4.63;;;;;;;;;;5009441;28;20064;-82
2024/04/01 09:12:47;;;;;;;22.10;4.03;;;;;;;;;;5024930;28;20053;-82
2024/04/01 09:15:15;;;;;;;19.45;4.13;;;;;;;;;;5023770;28;20046;-81
2024/04/01 09:17:42;;;;;;;18.27;4.55;;;;;;;;;;5015208;28;20476;-81
2024/04/01 09:20:08;;;;;;;19.00;4.47;;;;;;;;;;5030952;28;20050;-82
2024/04/01 09:22:35;;;;;;;22.65;5.10;;;;;;;;;;5014442;28;20054;-81
2024/04/01 09:25:01;;;;;;;25.55;4.82;;;;;;;;;;5013637;28;20049;-81
2024/04/01 09:27:27;;;;;;;24.55;4.60;;;;;;;;;;5020495;28;20053;-81
2024/04/01 09:29:53;;;;;;;27.90;4.88;;;;;;;;;;5025391;28;20056;-81
2024/04/01 09:32:20;;;;;;;19.63;4.85;;;;;;;;;;5024592;28;20054;-80
2024/04/01 09:34:46;;;;;;;30.30;4.60;;;;;;;;;;5014328;28;20045;-81
2024/04/01 09:37:12;;;;;;;13.75;3.55;;;;;;;;;;5014344;28;20052;-81
2024/04/01 09:39:39;;;;;;;19.92;4.40;;;;;;;;;;5003625;28;20050;-81
2024/04/01 09:42:06;;;;;;;20.63;3.78;;;;;;;;;;5025783;28;20049;-81
2024/04/01 09:44:34;;;;;;;20.17;4.88;;;;;;;;;;4998693;28;20057;-81
2024/04/01 09:47:00;;;;;;;19.38;3.15;;;;;;;;;;5005503;28;20062;-81
2024/04/01 09:49:28;;;;;;;8.55;2.30;;;;;;;;;;5006084;28;20084;-81
2024/04/01 09:51:54;;;;;;;5.70;1.27;;;;;;;;;;5015609;28;20058;-81
2024/04/01 09:54:21;;;;;;;9.80;1.35;;;;;;;;;;5030112;28;20507;-82
2024/04/01 09:57:06;;;;;;;7.97;1.48;;;;;;;;;;5012925;28;20052;-82
2024/04/01 09:59:38;;;;;;;8.45;1.27;;;;;;;;;;5008604;28;20053;-81
2024/04/01 10:02:23;;;;;;;8.93;1.60;;;;;;;;;;5006247;28;20050;-83
2024/04/01 10:05:05;;;;;;;6.50;1.08;;;;;;;;;;5006265;28;20058;-82
2024/04/01 10:07:40;;;;;;;6.53;1.10;;;;;;;;;;5004569;28;20050;-81
2024/04/01 10:10:22;;;;;;;7.93;1.15;;;;;;;;;;5013914;28;20062;-82
2024/04/01 10:12:58;;;;;;;8.60;1.20;;;;;;;;;;5022017;28;20465;-81
2024/04/01 10:15:37;;;;;;;4.60;0.98;;;;;;;;;;5011734;28;20043;-81
2024/04/01 10:18:14;;;;;;;8.63;1.38;;;;;;;;;;5010522;28;20060;-81
2024/04/01 10:20:43;;;;;;;7.10;1.10;;;;;;;;;;5023373;28;20049;-82
2024/04/01 10:23:28;;;;;;;7.40;1.27;;;;;;;;;;5006945;28;20042;-82
2024/04/01 10:26:13;;;;;;;11.55;1.40;;;;;;;;;;5020545;28;20046;-83
2024/04/01 10:28:58;;;;;;;6.25;1.10;;;;;;;;;;5022907;28;20116;-81
2024/04/01 10:31:45;;;;;;;9.75;1.25;;;;;;;;;;5024956;28;20489;-81
2024/04/01 10:34:11;;;;;;;5.05;1.67;;;;;;;;;;5006098;28;20065;-81
2024/04/01 10:36:53;;;;;;;8.30;1.88;;;;;;;;;;5023147;28;20500;-82
2024/04/01 10:39:35;;;;;;;10.95;1.80;;;;;;;;;;5007142;28;20053;-83
2024/04/01 10:42:20;;;;;;;14.10;1.98;;;;;;;;;;5022335;28;20045;-81
2024/04/01 10:44:50;;;;;;;13.40;1.70;;;;;;;;;;5007735;28;20054;-81
2024/04/01 10:47:26;;;;;;;9.45;2.08;;;;;;;;;;5006028;28;20061;-80
2024/04/01 10:50:12;;;;;;;9.43;2.65;;;;;;;;;;5021794;28;20085;-83
2024/04/01 10:52:57;;;;;;;12.70;2.13;;;;;;;;;;5021794;28;20049;-81
2024/04/01 10:55:57;;;;;;;9.85;1.60;;;;;;;;;;5004457;28;20057;-82
2024/04/01 10:58:37;;;;;;;2.88;1.20;;;;;;;;;;5025742;28;20058;-82
2024/04/01 11:01:22;;;;;;;5.40;1.15;;;;;;;;;;5025406;28;20056;-79
2024/04/01 11:04:08;;;;;;;4.45;1.23;;;;;;;;;;5009680;28;20062;-81
2024/04/01 11:06:34;;;;;;;7.50;1.15;;;;;;;;;;5010464;28;20077;-81
2024/04/01 11:09:08;;;;;;;8.60;0.77;;;;;;;;;;5027053;28;20081;-81
2024/04/01 11:11:34;;;;;;;3.38;1.20;;;;;;;;;;5025524;28;20080;-80
2024/04/01 11:14:01;;;;;;;2.92;1.13;;;;;;;;;;5009830;28;20053;-81
2024/04/01 11:16:30;;;;;;;3.40;1.00;;;;;;;;;;5027682;28;20046;-81
2024/04/01 11:19:22;;;;;;;2.92;1.08;;;;;;;;;;5000005;28;20080;-79
2024/04/01 11:21:52;;;;;;;4.47;1.20;;;;;;;;;;5014609;28;20077;-79
2024/04/01 11:24:31;;;;;;;4.75;1.00;;;;;;;;;;5001583;28;20050;-80
2024/04/01 11:27:12;;;;;;;4.28;0.80;;;;;;;;;;5004767;28;20479;-80
2024/04/01 11:29:51;;;;;;;5.80;0.88;;;;;;;;;;5026191;28;20479;-81
2024/04/01 11:32:18;;;;;;;3.05;0.80;;;;;;;;;;5011987;28;20065;-81
2024/04/01 11:34:49;;;;;;;2.05;0.75;;;;;;;;;;5029211;28;20056;-80
2024/04/01 11:37:25;;;;;;;4.35;0.80;;;;;;;;;;5037262;28;20102;-82
2024/04/01 11:39:54;;;;;;;2.60;0.55;;;;;;;;;;5000918;28;20046;-80
2024/04/01 11:42:21;;;;;;;3.40;0.90;;;;;;;;;;5003702;28;20080;-80
2024/04/01 11:44:49;;;;;;;4.38;0.90;;;;;;;;;;5019982;28;20092;-81
2024/04/01 11:47:16;;;;;;;3.45;0.60;;;;;;;;;;5036322;28;20053;-83
2024/04/01 11:49:43;;;;;;;2.47;1.05;;;;;;;;;;5019347;28;20076;-83
2024/04/01 11:52:16;;;;;;;3.08;0.80;;;;;;;;;;5009850;28;20061;-83
2024/04/01 11:54:43;;;;;;;6.47;0.80;;;;;;;;;;5025059;28;20061;-81
2024/04/01 11:57:10;;;;;;;4.97;1.10;;;;;;;;;;5009842;28;20409;-82
2024/04/01 11:59:37;;;;;;;3.20;0.82;;;;;;;;;;5034857;28;20049;-82
2024/04/01 12:02:13;;;;;;;4.43;0.93;;;;;;;;;;5017933;28;20053;-81
2024/04/01 12:04:40;;;;;;;3.22;1.02;;;;;;;;;;5009306;28;20066;-81
2024/04/01 12:07:06;;;;;;;4.10;0.70;;;;;;;;;;5009913;28;20512;-81
2024/04/01 12:09:33;;;;;;;1.95;0.70;;;;;;;;;;5010904;28;20064;-80
2024/04/01 12:12:00;;;;;;;0.30;0.25;;;;;;;;;;5010601;28;20501;-82
2024/04/01 12:14:27;;;;;;;4.10;0.47;;;;;;;;;;5007472;28;20054;-80
2024/04/01 12:16:57;;;;;;;0.73;0.30;;;;;;;;;;5013561;28;20050;-81
2024/04/01 12:19:23;;;;;;;0.68;0.30;;;;;;;;;;5012042;28;20046;-80
2024/04/01 12:21:50;;;;;;;0.82;0.30;;;;;;;;;;5028030;28;20053;-81
2024/04/01 12:24:17;;;;;;;1.60;0.35;;;;;;;;;;5010014;28;20050;-82
2024/04/01 12:26:44;;;;;;;0.43;0.20;;;;;;;;;;5010712;28;20067;-83
2024/04/01 12:29:13;;;;;;;1.35;0.30;;;;;;;;;;5009238;28;20053;-83
2024/04/01 12:31:46;;;;;;;0.30;0.20;;;;;;;;;;5027826;28;20058;-81
2024/04/01 12:34:14;;;;;;;1.08;0.20;;;;;;;;;;5009291;28;20559;-82
2024/04/01 12:36:41;;;;;;;1.20;0.13;;;;;;;;;;5034965;28;20068;-83
2024/04/01 12:39:11;;;;;;;0.10;0.10;;;;;;;;;;5025905;28;20558;-80
2024/04/01 12:41:38;;;;;;;0.30;0.10;;;;;;;;;;5023271;28;20076;-80
2024/04/01 12:44:06;;;;;;;0.08;0.03;;;;;;;;;;5022265;28;20069;-80
2024/04/01 12:46:35;;;;;;;0.35;0.00;;;;;;;;;;5006037;28;20072;-80
2024/04/01 12:49:03;;;;;;;0.10;0.10;;;;;;;;;;5023260;28;20050;-80
2024/04/01 12:51:29;;;;;;;1.33;0.10;;;;;;;;;;5024876;28;20061;-80
2024/04/01 12:54:08;;;;;;;0.50;0.20;;;;;;;;;;5036448;28;20045;-81
2024/04/01 12:56:40;;;;;;;0.20;0.10;;;;;;;;;;5037793;28;20045;-82
2024/04/01 12:59:29;;;;;;;0.57;0.10;;;;;;;;;;5028586;28;20055;-81
2024/04/01 13:01:55;;;;;;;0.10;0.00;;;;;;;;;;4995372;28;20054;-80
2024/04/01 13:04:31;;;;;;;0.00;0.00;;;;;;;;;;4992928;28;20453;-80
2024/04/01 13:07:17;;;;;;;0.00;0.00;;;;;;;;;;4991592;28;20062;-82
2024/04/01 13:09:45;;;;;;;1.45;0.00;;;;;;;;;;5015170;28;20116;-81
2024/04/01 13:12:33;;;;;;;0.10;0.10;;;;;;;;;;5016621;28;20049;-80
2024/04/01 13:15:11;;;;;;;0.00;0.00;;;;;;;;;;5000883;28;20045;-79
2024/04/01 13:17:44;;;;;;;0.45;0.00;;;;;;;;;;5025044;28;20235;-81
2024/04/01 13:20:15;;;;;;;6.68;0.10;;;;;;;;;;4999501;28;20535;-81
2024/04/01 13:22:44;;;;;;;0.00;0.00;;;;;;;;;;5026469;28;20096;-81
2024/04/01 13:25:31;;;;;;;0.10;0.10;;;;;;;;;;5003777;28;20065;-81
2024/04/01 13:28:10;;;;;;;0.30;0.30;;;;;;;;;;5017812;28;20096;-81
2024/04/01 13:30:47;;;;;;;0.10;0.00;;;;;;;;;;5003612;28;20053;-81
2024/04/01 13:33:20;;;;;;;0.00;0.00;;;;;;;;;;5004000;28;20054;-82
2024/04/01 13:35:56;;;;;;;0.10;0.10;;;;;;;;;;5002446;28;20061;-80
2024/04/01 13:38:29;;;;;;;0.00;0.00;;;;;;;;;;5000750;28;20524;-80
2024/04/01 13:41:25;;;;;;;0.10;0.10;;;;;;;;;;5000285;28;20065;-80
2024/04/01 13:44:14;;;;;;;0.00;0.00;;;;;;;;;;4989547;28;20489;-80
2024/04/01 13:46:40;;;;;;;0.20;0.20;;;;;;;;;;4998110;28;20101;-79
2024/04/01 13:49:33;;;;;;;0.10;0.03;;;;;;;;;;5027473;28;20058;-81
2024/04/01 13:52:11;;;;;;;0.00;0.00;;;;;;;;;;5031924;28;20057;-81
2024/04/01 13:54:38;;;;;;;0.20;0.10;;;;;;;;;;5008776;28;20046;-81
2024/04/01 13:57:08;;;;;;;0.00;0.00;;;;;;;;;;5014626;28;20078;-81
2024/04/01 13:59:45;;;;;;;0.20;0.20;;;;;;;;;;5014461;28;20412;-81
2024/04/01 14:02:27;;;;;;;0.10;0.10;;;;;;;;;;5022963;28;20049;-81
2024/04/01 14:05:06;;;;;;;0.20;0.10;;;;;;;;;;5004962;28;20520;-80
2024/04/01 14:07:41;;;;;;;0.47;0.10;;;;;;;;;;5005796;28;20068;-82
2024/04/01 14:10:10;;;;;;;0.43;0.00;;;;;;;;;;5021725;28;20420;-81
2024/04/01 14:12:50;;;;;;;0.10;0.10;;;;;;;;;;5013302;28;20046;-81
2024/04/01 14:15:30;;;;;;;1.27;0.32;;;;;;;;;;5020702;28;20077;-82
2024/04/01 14:18:15;;;;;;;0.00;0.00;;;;;;;;;;5005581;28;20111;-82
2024/04/01 14:20:46;;;;;;;0.30;0.00;;;;;;;;;;5005661;28;20050;-81
2024/04/01 14:23:12;;;;;;;0.10;0.10;;;;;;;;;;5021555;28;20049;-82
2024/04/01 14:25:46;;;;;;;0.00;0.00;;;;;;;;;;5013058;28;20547;-82
2024/04/01 14:28:12;;;;;;;0.10;0.10;;;;;;;;;;5002778;28;20053;-81
2024/04/01 14:30:39;;;;;;;0.05;0.05;;;;;;;;;;5004860;28;20060;-82
2024/04/01 14:33:05;;;;;;;0.10;0.10;;;;;;;;;;5008729;28;20058;-82
2024/04/01 14:35:35;;;;;;;0.10;0.10;;;;;;;;;;5019267;28;20427;-80
2024/04/01 14:38:02;;;;;;;0.10;0.10;;;;;;;;;;5004200;28;20049;-80
2024/04/01 14:40:29;;;;;;;0.28;0.28;;;;;;;;;;5012521;28;20476;-81
2024/04/01 14:42:56;;;;;;;0.10;0.10;;;;;;;;;;5020846;28;20108;-80
2024/04/01 14:45:22;;;;;;;0.00;0.00;;;;;;;;;;5020912;28;20076;-81